Time;durP1;ratioP1;P1;durP2;ratioP2;P2;SDS_P1;SDS_P2;PMS_P1;PMS_P2;Temp;Humidity;BMP_temperature;BMP_pressure;BME280_temperature;BME280_humidity;BME280_pressure;Samples;Min_cycle;Max_cycle;Signal;HPM_P1;HPM_P2
2022/04/02 00:01:40;;;;;;;;;7.75;6.00;;;;;3.57;79.55;101093.72;4959902;28;45406;-73
2022/04/02 00:04:07;;;;;;;;;10.25;8.00;;;;;3.59;78.55;101097.16;4958932;28;45264;-72
2022/04/02 00:06:33;;;;;;;;;12.75;9.75;;;;;3.55;77.63;101105.69;4957411;28;45401;-71
2022/04/02 00:08:59;;;;;;;;;9.50;7.50;;;;;3.56;78.21;101097.13;4956984;28;45411;-72
2022/04/02 00:11:25;;;;;;;;;2.50;2.50;;;;;3.54;77.97;101103.13;4957469;28;45340;-73
2022/04/02 00:13:51;;;;;;;;;11.50;7.50;;;;;3.55;75.94;101104.84;4956982;28;45445;-73
2022/04/02 00:16:16;;;;;;;;;8.25;5.50;;;;;3.55;75.51;101097.13;4957406;28;45371;-72
2022/04/02 00:18:42;;;;;;;;;12.75;8.50;;;;;3.59;77.96;101101.44;4956671;28;45352;-72
2022/04/02 00:21:08;;;;;;;;;11.00;8.50;;;;;3.64;78.37;101100.63;4965913;28;45278;-72
2022/04/02 00:23:40;;;;;;;;;10.50;10.50;;;;;3.64;74.89;101094.63;4978967;28;45441;-72
2022/04/02 00:26:12;;;;;;;;;8.00;8.00;;;;;3.66;77.11;101103.22;4979028;28;45204;-71
2022/04/02 00:28:39;;;;;;;;;6.25;5.25;;;;;3.67;75.99;101107.50;4974654;28;46079;-71
2022/04/02 00:31:09;;;;;;;;;10.25;9.00;;;;;3.70;76.75;101107.50;4969921;28;45621;-71
2022/04/02 00:33:36;;;;;;;;;10.75;7.00;;;;;3.69;74.23;101107.50;4978327;28;45365;-71
2022/04/02 00:36:02;;;;;;;;;6.50;6.50;;;;;3.62;74.98;101094.63;4977224;28;45342;-71
2022/04/02 00:38:28;;;;;;;;;12.25;7.25;;;;;3.63;72.84;101109.19;4978108;28;46298;-71
2022/04/02 00:40:54;;;;;;;;;12.00;8.00;;;;;3.64;71.87;101104.91;4966446;28;45413;-72
2022/04/02 00:43:37;;;;;;;;;4.00;4.00;;;;;3.64;71.59;101103.19;4977087;28;45344;-71
2022/04/02 00:46:07;;;;;;;;;7.25;4.50;;;;;3.65;73.38;101096.34;4978547;28;45399;-71
2022/04/02 00:48:33;;;;;;;;;4.00;3.00;;;;;3.61;71.46;101110.91;4966258;28;46975;-72
2022/04/02 00:51:00;;;;;;;;;10.75;7.75;;;;;3.55;66.58;101097.97;4978120;28;45377;-72
2022/04/02 00:53:31;;;;;;;;;4.00;4.00;;;;;3.55;68.66;101099.69;4978429;28;45331;-69
2022/04/02 00:55:57;;;;;;;;;10.25;7.25;;;;;3.57;73.43;101104.00;4977545;28;45496;-69
2022/04/02 00:58:22;;;;;;;;;4.75;4.75;;;;;3.57;71.07;101110.84;4977890;28;47246;-69
2022/04/02 01:00:48;;;;;;;;;8.00;6.33;;;;;3.57;72.91;101101.41;4977945;28;45240;-70
2022/04/02 01:03:16;;;;;;;;;5.00;3.50;;;;;3.54;66.50;101110.81;4978316;28;45206;-69
2022/04/02 01:05:41;;;;;;;;;8.50;4.00;;;;;3.55;69.70;101097.13;4977783;28;45591;-70
2022/04/02 01:08:07;;;;;;;;;11.00;4.00;;;;;3.48;71.81;101095.38;4978171;28;46220;-70
2022/04/02 01:10:34;;;;;;;;;4.00;3.00;;;;;3.45;66.41;101113.34;4977928;28;45446;-71
2022/04/02 01:12:59;;;;;;;;;5.25;4.00;;;;;3.45;70.36;101105.63;4978366;28;45331;-72
2022/04/02 01:15:26;;;;;;;;;5.25;5.25;;;;;3.43;73.28;101092.78;4977858;28;45275;-72
2022/04/02 01:17:52;;;;;;;;;2.50;2.50;;;;;3.43;73.61;101109.91;4970201;28;46180;-72
2022/04/02 01:20:18;;;;;;;;;4.25;2.00;;;;;3.36;65.73;101098.69;4969413;28;45461;-73
2022/04/02 01:22:44;;;;;;;;;1.75;1.00;;;;;3.38;71.74;101111.56;4973420;28;45338;-72
2022/04/02 01:25:10;;;;;;;;;1.50;1.50;;;;;3.32;71.27;101094.38;4977815;28;45299;-72
2022/04/02 01:27:36;;;;;;;;;7.00;3.50;;;;;3.35;71.42;101104.69;4977765;28;46020;-72
2022/04/02 01:30:02;;;;;;;;;1.00;1.00;;;;;3.31;72.90;101093.53;4964597;28;45509;-72
2022/04/02 01:32:27;;;;;;;;;4.00;4.00;;;;;3.24;67.61;101103.75;4977801;28;45261;-73
2022/04/02 01:34:53;;;;;;;;;4.00;2.00;;;;;3.23;69.33;101108.03;4977510;28;45314;-73
2022/04/02 01:37:18;;;;;;;;;2.00;2.00;;;;;3.21;71.78;101096.03;4977888;28;46508;-71
2022/04/02 01:39:44;;;;;;;;;7.00;4.50;;;;;3.20;72.14;101101.97;4977582;28;45375;-71
2022/04/02 01:42:09;;;;;;;;;2.00;0.50;;;;;3.16;71.70;101100.25;4977619;28;45265;-71
2022/04/02 01:44:35;;;;;;;;;2.00;2.00;;;;;3.14;71.72;101118.22;4977405;28;45351;-71
2022/04/02 01:47:00;;;;;;;;;10.50;7.00;;;;;3.10;67.90;101123.31;4977490;28;46215;-71
2022/04/02 01:49:26;;;;;;;;;5.00;2.00;;;;;3.09;73.21;101114.75;4977357;28;45239;-72
2022/04/02 01:51:51;;;;;;;;;2.00;2.00;;;;;3.10;70.85;101121.59;4977525;28;45232;-71
2022/04/02 01:54:19;;;;;;;;;4.00;4.00;;;;;3.09;73.96;101108.75;4977250;28;45409;-71
2022/04/02 01:56:45;;;;;;;;;6.00;3.50;;;;;3.05;73.56;101120.72;4976647;28;46016;-72
2022/04/02 01:59:11;;;;;;;;;6.25;4.00;;;;;3.07;72.22;101118.16;4979644;28;45741;-72
2022/04/02 02:01:36;;;;;;;;;4.50;3.50;;;;;3.02;71.55;101120.69;4983800;28;45475;-72
2022/04/02 02:04:02;;;;;;;;;7.25;4.00;;;;;2.93;71.17;101116.31;4983777;28;45343;-71
2022/04/02 02:06:27;;;;;;;;;8.50;4.25;;;;;2.95;71.82;101129.16;4983570;28;45322;-70
2022/04/02 02:08:52;;;;;;;;;5.00;4.00;;;;;2.92;69.31;101121.44;4983576;28;45494;-70
2022/04/02 02:11:18;;;;;;;;;7.75;4.75;;;;;2.93;73.87;101120.56;4983982;28;45468;-70
2022/04/02 02:13:44;;;;;;;;;7.00;5.00;;;;;2.90;67.56;101138.53;4983542;28;45438;-70
2022/04/02 02:16:10;;;;;;;;;4.75;1.25;;;;;2.87;69.40;101135.94;4983623;28;46091;-70
2022/04/02 02:18:35;;;;;;;;;9.50;4.00;;;;;2.87;70.49;101141.91;4995757;28;45223;-70
2022/04/02 02:21:00;;;;;;;;;5.00;3.50;;;;;2.86;69.09;101141.91;4985092;28;45243;-70
2022/04/02 02:23:26;;;;;;;;;5.00;4.00;;;;;2.84;71.14;101138.47;4983483;28;45283;-70
2022/04/02 02:25:51;;;;;;;;;4.25;2.00;;;;;2.80;71.10;101123.84;4983335;28;45361;-70
2022/04/02 02:28:16;;;;;;;;;3.33;3.33;;;;;2.80;70.84;101126.41;4982155;28;45223;-70
2022/04/02 02:30:42;;;;;;;;;2.00;1.00;;;;;2.73;69.44;101121.22;4971795;28;45414;-70
2022/04/02 02:35:51;;;;;;;;;5.50;3.75;;;;;2.68;68.09;101137.44;4973966;28;45222;-71
2022/04/02 02:38:20;;;;;;;;;4.00;4.00;;;;;2.65;70.08;101137.41;4983231;28;45208;-70
2022/04/02 02:40:47;;;;;;;;;2.50;2.50;;;;;2.54;70.79;101118.44;4983579;28;45537;-70
2022/04/02 02:43:13;;;;;;;;;9.75;7.00;;;;;2.59;70.95;101147.56;4982931;28;45476;-70
2022/04/02 02:45:39;;;;;;;;;4.75;3.50;;;;;2.55;70.41;101145.81;4983181;28;46421;-70
2022/04/02 02:48:04;;;;;;;;;3.25;3.25;;;;;2.52;69.63;101146.66;4982777;28;45431;-69
2022/04/02 02:50:30;;;;;;;;;7.00;5.00;;;;;2.50;70.76;101148.34;4983276;28;45456;-70
2022/04/02 02:52:55;;;;;;;;;7.00;6.50;;;;;2.45;71.11;101139.75;4982724;28;45460;-70
2022/04/02 02:55:21;;;;;;;;;9.50;4.00;;;;;2.46;70.79;101161.13;4982816;28;45490;-70
2022/04/02 02:57:47;;;;;;;;;8.00;4.00;;;;;2.43;71.70;101151.69;4982042;28;45258;-70
2022/04/02 03:00:15;;;;;;;;;0.00;0.00;;;;;2.44;73.83;101163.66;4983126;28;45258;-70
2022/04/02 03:02:41;;;;;;;;;4.25;4.25;;;;;2.41;70.80;101164.50;4981295;28;45965;-73
2022/04/02 03:05:10;;;;;;;;;0.00;0.00;;;;;2.35;72.23;101154.13;4982953;28;45425;-73
2022/04/02 03:07:50;;;;;;;;;7.00;4.25;;;;;2.36;72.48;101160.13;4981412;28;45299;-73
2022/04/02 03:10:19;;;;;;;;;10.00;7.25;;;;;2.34;72.63;101157.53;4980954;28;45399;-73
2022/04/02 03:12:47;;;;;;;;;4.00;4.00;;;;;2.28;70.27;101157.47;4977770;28;45629;-73
2022/04/02 03:15:13;;;;;;;;;7.50;4.50;;;;;2.29;72.01;101159.19;4979380;28;45272;-73
2022/04/02 03:17:39;;;;;;;;;5.25;5.25;;;;;2.27;71.10;101166.00;4979456;28;45346;-73
2022/04/02 03:20:06;;;;;;;;;5.25;4.50;;;;;2.25;71.92;101162.56;4979303;28;45315;-74
2022/04/02 03:22:39;;;;;;;;;4.00;4.00;;;;;2.25;72.38;101174.53;5027435;28;45276;-74
2022/04/02 03:25:11;;;;;;;;;7.25;4.50;;;;;2.22;71.00;101175.34;4979223;28;45530;-73
2022/04/02 03:27:38;;;;;;;;;5.50;5.50;;;;;2.18;71.43;101171.00;4966590;28;45453;-75
2022/04/02 03:30:06;;;;;;;;;11.00;7.75;;;;;2.18;71.64;101173.56;4964083;28;45641;-75
2022/04/02 03:32:31;;;;;;;;;7.00;7.00;;;;;2.17;72.88;101171.84;4976740;28;45541;-75
2022/04/02 03:34:57;;;;;;;;;7.00;4.00;;;;;2.14;72.33;101175.22;4976498;28;45595;-76
2022/04/02 03:37:27;;;;;;;;;5.75;5.50;;;;;2.12;71.29;101166.66;4977032;28;45398;-76
2022/04/02 03:39:52;;;;;;;;;13.00;7.75;;;;;2.14;74.36;101170.09;4976782;28;45342;-76
2022/04/02 03:42:18;;;;;;;;;6.75;5.25;;;;;2.14;73.34;101180.34;4975350;28;46176;-76
2022/04/02 03:44:44;;;;;;;;;11.25;7.25;;;;;2.09;70.64;101179.44;4977622;28;46964;-76
2022/04/02 03:47:09;;;;;;;;;6.00;5.50;;;;;2.10;72.99;101170.91;4977987;28;45347;-76
2022/04/02 03:49:40;;;;;;;;;4.25;4.00;;;;;2.09;71.80;101176.03;4976878;28;45504;-76
2022/04/02 03:52:06;;;;;;;;;4.00;4.00;;;;;2.06;71.89;101174.28;4976532;28;45374;-76
2022/04/02 03:54:35;;;;;;;;;7.75;4.25;;;;;2.07;72.79;101183.69;4976282;28;45610;-76
2022/04/02 03:57:00;;;;;;;;;6.00;4.00;;;;;2.06;74.65;101171.72;4976105;28;45874;-77
2022/04/02 03:59:25;;;;;;;;;6.75;5.25;;;;;2.07;73.06;101180.25;4976659;28;45555;-77
2022/04/02 04:01:51;;;;;;;;;7.00;6.00;;;;;2.05;72.16;101174.25;4976811;28;45550;-77
2022/04/02 04:04:16;;;;;;;;;9.25;7.00;;;;;2.03;74.35;101170.81;4977864;28;45272;-76
2022/04/02 04:06:42;;;;;;;;;8.50;7.00;;;;;2.06;75.29;101176.84;4979030;28;45605;-76
2022/04/02 04:09:08;;;;;;;;;9.50;6.75;;;;;2.04;73.20;101182.78;4979071;28;45317;-76
2022/04/02 04:11:33;;;;;;;;;8.50;7.00;;;;;2.04;73.51;101186.22;4978817;28;45390;-75
2022/04/02 04:13:59;;;;;;;;;6.00;6.00;;;;;2.03;73.99;101187.06;4978752;28;45254;-75
2022/04/02 04:16:25;;;;;;;;;4.00;4.00;;;;;2.04;72.41;101187.91;4978985;28;45259;-75
2022/04/02 04:18:50;;;;;;;;;7.00;7.00;;;;;2.00;73.32;101188.69;4991477;28;45169;-76
2022/04/02 04:21:15;;;;;;;;;12.00;9.50;;;;;2.01;74.62;101186.19;4976951;28;45278;-74
2022/04/02 04:23:42;;;;;;;;;10.00;5.00;;;;;2.01;74.50;101191.31;4977878;28;45177;-74
2022/04/02 04:26:08;;;;;;;;;9.50;7.25;;;;;1.98;73.72;101196.34;4978190;28;45271;-74
2022/04/02 04:28:33;;;;;;;;;4.00;4.00;;;;;1.98;72.12;101188.66;4975689;28;45410;-74
2022/04/02 04:30:59;;;;;;;;;8.75;8.75;;;;;1.98;74.97;101196.34;4968719;28;45557;-74
2022/04/02 04:33:24;;;;;;;;;8.00;6.25;;;;;2.03;75.11;101206.69;4978336;28;46351;-74
2022/04/02 04:35:49;;;;;;;;;4.67;4.67;;;;;1.99;74.45;101203.19;4978788;28;45317;-75
2022/04/02 04:38:15;;;;;;;;;6.00;6.00;;;;;2.01;73.69;101206.69;4978743;28;45334;-75
2022/04/02 04:40:40;;;;;;;;;7.25;4.25;;;;;2.01;73.79;101216.06;4978794;28;45321;-75
2022/04/02 04:43:07;;;;;;;;;7.75;6.00;;;;;2.00;73.78;101224.56;4978438;28;45428;-75
2022/04/02 04:45:32;;;;;;;;;8.25;5.25;;;;;1.99;74.86;101212.59;4977573;28;45604;-76
2022/04/02 04:47:59;;;;;;;;;5.25;4.00;;;;;1.97;75.08;101214.28;4978453;28;45457;-71
2022/04/02 04:50:24;;;;;;;;;9.50;7.00;;;;;1.99;73.12;101221.16;4978328;28;45545;-71
2022/04/02 04:52:50;;;;;;;;;8.25;7.25;;;;;1.99;74.39;101236.53;4977898;28;45244;-71
2022/04/02 04:55:15;;;;;;;;;6.00;3.50;;;;;1.98;73.67;101250.19;4978316;28;45421;-72
2022/04/02 04:57:40;;;;;;;;;8.25;8.25;;;;;1.94;71.46;101225.34;4977537;28;46202;-71
2022/04/02 05:00:07;;;;;;;;;10.75;7.25;;;;;1.94;73.73;101237.31;4978234;28;45437;-71
2022/04/02 05:02:32;;;;;;;;;10.75;9.75;;;;;1.95;73.66;101231.34;4977872;28;46317;-70
2022/04/02 05:04:57;;;;;;;;;7.00;7.00;;;;;1.95;73.94;101242.44;4978020;28;45294;-71
2022/04/02 05:07:23;;;;;;;;;7.75;7.75;;;;;1.94;72.10;101247.56;4978167;28;45307;-71
2022/04/02 05:09:49;;;;;;;;;7.50;6.75;;;;;1.96;74.53;101248.44;4978284;28;45517;-70
2022/04/02 05:12:15;;;;;;;;;6.75;6.00;;;;;1.89;73.80;101234.66;4977643;28;45998;-70
2022/04/02 05:14:41;;;;;;;;;10.00;7.75;;;;;1.97;74.94;101253.59;4978065;28;45666;-70
2022/04/02 05:17:07;;;;;;;;;9.25;8.75;;;;;1.96;74.43;101254.41;4975633;28;45412;-71
2022/04/02 05:19:32;;;;;;;;;6.50;4.00;;;;;1.98;75.20;101251.88;4966183;28;45532;-70
2022/04/02 05:21:58;;;;;;;;;3.75;2.50;;;;;1.96;73.35;101251.00;4964530;28;46308;-70
2022/04/02 05:24:23;;;;;;;;;6.00;6.00;;;;;1.98;73.94;101259.56;4977978;28;45300;-70
2022/04/02 05:26:49;;;;;;;;;14.50;10.00;;;;;1.98;73.63;101277.50;4976487;28;45307;-70
2022/04/02 05:29:14;;;;;;;;;4.75;4.00;;;;;1.94;71.85;101258.66;4969858;28;45156;-70
2022/04/02 05:31:43;;;;;;;;;11.75;8.25;;;;;1.94;74.25;101256.09;4972726;28;46439;-70
2022/04/02 05:34:09;;;;;;;;;10.25;7.75;;;;;1.96;74.74;101266.38;4977356;28;45344;-70
2022/04/02 05:36:38;;;;;;;;;8.00;7.00;;;;;1.97;71.79;101265.53;4977734;28;45314;-70
2022/04/02 05:39:04;;;;;;;;;7.50;7.50;;;;;1.98;74.48;101265.56;4977838;28;45468;-70
2022/04/02 05:41:30;;;;;;;;;11.00;7.00;;;;;1.98;73.61;101272.38;4977250;28;46293;-70
2022/04/02 05:43:55;;;;;;;;;9.50;6.50;;;;;1.99;73.77;101269.84;4977741;28;45400;-70
2022/04/02 05:46:22;;;;;;;;;9.00;6.67;;;;;2.00;73.31;101273.28;4977702;28;45472;-70
2022/04/02 05:48:47;;;;;;;;;4.75;4.00;;;;;2.00;73.20;101284.41;4977616;28;45356;-70
2022/04/02 05:51:13;;;;;;;;;8.25;8.25;;;;;2.02;74.76;101264.78;4977233;28;46090;-70
2022/04/02 05:53:38;;;;;;;;;7.50;7.50;;;;;2.04;72.01;101273.38;4977560;28;45379;-72
2022/04/02 05:56:04;;;;;;;;;9.00;6.25;;;;;2.03;72.59;101279.34;4976776;28;45550;-72
2022/04/02 05:58:29;;;;;;;;;6.50;6.50;;;;;2.07;72.67;101275.97;4977574;28;45555;-72
2022/04/02 06:00:55;;;;;;;;;9.50;9.50;;;;;2.05;72.26;101282.78;4976701;28;46008;-72
2022/04/02 06:03:20;;;;;;;;;4.75;4.00;;;;;2.09;71.13;101288.81;4977188;28;45529;-72
2022/04/02 06:05:48;;;;;;;;;7.50;6.00;;;;;2.13;74.09;101288.88;4977071;28;45512;-72
2022/04/02 06:08:14;;;;;;;;;15.25;8.75;;;;;2.21;72.40;101306.97;4977437;28;45394;-72
2022/04/02 06:10:39;;;;;;;;;8.25;8.25;;;;;2.23;72.94;101299.28;4977139;28;45415;-72
2022/04/02 06:13:05;;;;;;;;;5.75;5.25;;;;;2.23;73.44;101295.03;4977233;28;45246;-72
2022/04/02 06:15:30;;;;;;;;;7.50;5.50;;;;;2.31;73.25;101306.25;4977329;28;45249;-72
2022/04/02 06:17:55;;;;;;;;;4.00;4.00;;;;;2.32;73.82;101294.28;4968752;28;45516;-72
2022/04/02 06:20:21;;;;;;;;;7.25;5.00;;;;;2.35;73.20;101304.59;4970159;28;46089;-72
2022/04/02 06:22:46;;;;;;;;;5.75;5.50;;;;;2.42;72.07;101319.25;4966338;28;45426;-72
2022/04/02 06:25:11;;;;;;;;;7.75;7.00;;;;;2.47;74.96;101321.88;4976895;28;45240;-72
2022/04/02 06:27:44;;;;;;;;;9.50;4.50;;;;;2.51;72.37;101319.38;4976535;28;45221;-72
2022/04/02 06:30:12;;;;;;;;;5.75;5.25;;;;;2.53;72.97;101319.41;4975799;27;45306;-70
2022/04/02 06:32:38;;;;;;;;;4.50;4.00;;;;;2.62;72.52;101320.41;4976611;28;45244;-68
2022/04/02 06:35:04;;;;;;;;;7.25;3.50;;;;;2.68;73.99;101324.75;4976565;28;45256;-68
2022/04/02 06:37:38;;;;;;;;;4.00;1.50;;;;;2.74;74.64;101328.25;4975425;28;45363;-69
2022/04/02 06:40:05;;;;;;;;;12.00;5.50;;;;;2.79;72.41;101338.59;4976394;28;47040;-69
2022/04/02 06:42:31;;;;;;;;;7.00;4.00;;;;;2.81;73.83;101324.09;4976622;28;45450;-69
2022/04/02 06:44:57;;;;;;;;;10.25;8.00;;;;;2.86;72.71;101339.53;4976731;28;45271;-69
2022/04/02 06:47:27;;;;;;;;;7.25;4.00;;;;;2.89;69.35;101337.03;4979554;28;45362;-68
2022/04/02 06:49:53;;;;;;;;;4.00;4.00;;;;;2.95;71.80;101343.09;4979290;28;46285;-69
2022/04/02 06:52:18;;;;;;;;;7.00;2.00;;;;;3.04;70.52;101355.19;4979415;28;45228;-69
2022/04/02 06:54:44;;;;;;;;;10.75;5.00;;;;;3.11;73.00;101354.44;4979244;28;45284;-69
2022/04/02 06:57:09;;;;;;;;;7.75;7.00;;;;;3.13;69.47;101350.16;4978924;28;45565;-70
2022/04/02 06:59:34;;;;;;;;;4.50;4.50;;;;;3.20;69.43;101345.97;4979272;28;45295;-70
2022/04/02 07:02:01;;;;;;;;;6.75;4.75;;;;;3.30;70.95;101346.09;4979457;28;45346;-70
2022/04/02 07:04:27;;;;;;;;;7.50;6.00;;;;;3.35;67.94;101353.84;4979501;28;45384;-70
2022/04/02 07:06:52;;;;;;;;;4.25;4.25;;;;;3.39;68.73;101349.59;4979400;28;45286;-70
2022/04/02 07:09:18;;;;;;;;;4.25;4.25;;;;;3.50;71.65;101368.59;4977929;28;47251;-69
2022/04/02 07:11:43;;;;;;;;;5.50;4.25;;;;;3.55;68.65;101369.50;4979307;28;45464;-69
2022/04/02 07:14:09;;;;;;;;;10.25;5.50;;;;;3.57;67.51;101368.66;4979483;28;45301;-68
2022/04/02 07:16:36;;;;;;;;;8.00;5.50;;;;;3.64;69.84;101377.34;4979336;28;45394;-69
2022/04/02 07:19:02;;;;;;;;;6.00;4.00;;;;;3.74;67.98;101357.72;4980019;28;46406;-70
2022/04/02 07:21:28;;;;;;;;;5.00;4.00;;;;;3.79;68.31;101367.19;4979874;28;45230;-71
2022/04/02 07:23:55;;;;;;;;;11.00;7.75;;;;;3.90;72.12;101375.88;4979346;28;45320;-71
2022/04/02 07:26:22;;;;;;;;;5.75;4.00;;;;;4.03;70.64;101366.59;4979162;28;45418;-71
2022/04/02 07:28:47;;;;;;;;;5.50;4.25;;;;;4.09;69.58;101381.22;4974538;28;46397;-70
2022/04/02 07:31:12;;;;;;;;;7.50;5.50;;;;;4.13;70.24;101382.97;4970850;28;45303;-72
2022/04/02 07:33:38;;;;;;;;;3.00;3.00;;;;;4.19;67.71;101383.00;4979004;28;45271;-66
2022/04/02 07:36:09;;;;;;;;;7.00;6.00;;;;;4.20;67.15;101395.00;4979211;28;45324;-69
2022/04/02 07:38:40;;;;;;;;;5.00;5.00;;;;;4.27;65.93;101400.25;4978973;28;46515;-69
2022/04/02 07:41:39;;;;;;;;;5.00;4.75;;;;;4.35;67.99;101395.16;4977851;28;45485;-75
2022/04/02 07:44:17;;;;;;;;;7.00;5.50;;;;;4.43;69.38;101396.09;4959352;28;45375;-70
2022/04/02 07:46:44;;;;;;;;;6.00;4.00;;;;;4.47;67.04;101395.28;4977799;28;45356;-72
2022/04/02 07:49:11;;;;;;;;;9.75;4.25;;;;;4.53;67.77;101384.16;4978875;28;45406;-73
2022/04/02 07:51:38;;;;;;;;;8.00;5.00;;;;;4.72;68.18;101405.75;4978415;28;45300;-66
2022/04/02 07:54:07;;;;;;;;;5.25;4.75;;;;;4.78;66.52;101392.91;4978997;28;45342;-71
2022/04/02 07:56:38;;;;;;;;;10.00;7.75;;;;;4.84;64.95;101414.44;4977024;28;45509;-69
2022/04/02 07:59:10;;;;;;;;;3.50;3.50;;;;;4.81;65.19;101405.81;4978633;28;46179;-67
2022/04/02 08:01:35;;;;;;;;;11.75;5.50;;;;;4.87;63.36;101406.72;4978634;28;45849;-70
2022/04/02 08:04:04;;;;;;;;;4.75;4.75;;;;;4.93;65.11;101405.88;4978479;28;45434;-71
2022/04/02 08:06:32;;;;;;;;;8.25;6.50;;;;;5.02;65.74;101416.25;4978962;28;45434;-67
2022/04/02 08:08:59;;;;;;;;;11.75;7.75;;;;;5.00;62.49;101415.34;4965509;28;46032;-70
2022/04/02 08:11:25;;;;;;;;;6.50;3.00;;;;;5.00;66.48;101406.78;4970418;28;45250;-68
2022/04/02 08:13:52;;;;;;;;;14.00;9.50;;;;;5.09;68.11;101401.69;4978531;28;45298;-74
2022/04/02 08:16:17;;;;;;;;;9.75;8.50;;;;;5.21;68.51;101409.50;4974219;28;45233;-74
2022/04/02 08:18:44;;;;;;;;;6.50;5.00;;;;;5.14;60.27;101436.06;4969369;28;45443;-72
2022/04/02 08:21:10;;;;;;;;;5.00;4.00;;;;;5.15;65.04;101393.97;4968605;28;45475;-72
2022/04/02 08:23:37;;;;;;;;;7.50;4.50;;;;;5.22;65.00;101407.78;4968073;28;45510;-72
2022/04/02 08:26:23;;;;;;;;;4.75;4.00;;;;;5.24;62.04;101414.66;4968563;28;45335;-75
2022/04/02 08:29:30;;;;;;;;;6.25;4.00;;;;;5.37;63.31;101425.88;4968251;28;45435;-74
2022/04/02 08:32:02;;;;;;;;;0.75;0.75;;;;;5.41;64.43;101407.03;4966654;28;45426;-68
2022/04/02 08:34:49;;;;;;;;;14.50;5.00;;;;;5.50;67.27;101409.63;4968695;28;45691;-69
2022/04/02 08:37:15;;;;;;;;;8.00;3.50;;;;;5.49;58.96;101419.06;4968963;28;45421;-73
2022/04/02 08:40:19;;;;;;;;;4.00;4.00;;;;;5.42;55.97;101443.09;4973273;28;46454;-72
2022/04/02 08:43:15;;;;;;;;;1.25;0.50;;;;;5.47;56.39;101420.78;4978337;28;45775;-72
2022/04/02 08:45:57;;;;;;;;;4.00;4.00;;;;;5.54;58.47;101429.41;4969878;28;45348;-72
2022/04/02 08:48:24;;;;;;;;;10.75;6.75;;;;;5.71;63.40;101404.53;4971336;28;45514;-72
2022/04/02 08:51:14;;;;;;;;;5.75;5.75;;;;;5.74;60.34;101432.91;4968010;28;46479;-73
2022/04/02 08:53:47;;;;;;;;;2.00;2.00;;;;;5.76;59.01;101430.34;4966571;28;45335;-70
2022/04/02 08:56:20;;;;;;;;;4.25;4.00;;;;;5.73;57.71;101420.00;4967878;28;45252;-69
2022/04/02 08:59:03;;;;;;;;;5.00;5.00;;;;;5.79;59.79;101443.22;4966904;28;45562;-71
2022/04/02 09:01:38;;;;;;;;;0.50;0.00;;;;;5.86;61.70;101426.09;4968708;28;47150;-70
2022/04/02 09:04:19;;;;;;;;;6.25;5.25;;;;;5.98;64.04;101459.66;4966362;28;45319;-72
2022/04/02 09:07:10;;;;;;;;;11.25;8.00;;;;;6.02;60.34;101423.59;4966912;28;45336;-71
2022/04/02 09:09:58;;;;;;;;;5.00;5.00;;;;;6.21;64.47;101436.53;4967218;28;45403;-70
2022/04/02 09:12:53;;;;;;;;;5.00;5.00;;;;;6.36;62.79;101427.06;4970934;28;46339;-67
2022/04/02 09:15:55;;;;;;;;;4.00;4.00;;;;;6.38;56.15;101445.13;4977655;28;45932;-72
2022/04/02 09:18:36;;;;;;;;;7.50;6.00;;;;;6.47;56.38;101424.50;4989968;28;45420;-73
2022/04/02 09:21:26;;;;;;;;;1.75;1.50;;;;;6.60;60.35;101435.66;4967745;28;45454;-69
2022/04/02 09:24:18;;;;;;;;;7.50;5.00;;;;;6.60;50.74;101440.81;4963838;28;46133;-69
2022/04/02 09:27:01;;;;;;;;;4.75;4.75;;;;;6.63;55.63;101435.69;4998114;28;45458;-69
2022/04/02 09:29:29;;;;;;;;;4.25;4.25;;;;;6.54;57.49;101435.66;4966656;28;45439;-72
2022/04/02 09:32:05;;;;;;;;;8.00;5.75;;;;;6.54;53.11;101451.16;4966807;28;45397;-66
2022/04/02 09:35:11;;;;;;;;;6.50;6.00;;;;;6.60;53.53;101439.09;4967261;28;46896;-66
2022/04/02 09:37:55;;;;;;;;;4.25;2.50;;;;;6.72;48.33;101439.13;4971338;28;45598;-71
2022/04/02 09:40:33;;;;;;;;;6.25;6.00;;;;;6.82;53.24;101442.56;4965622;28;45463;-66
2022/04/02 09:43:04;;;;;;;;;6.00;5.00;;;;;7.05;55.10;101454.59;4966159;28;45264;-64
2022/04/02 09:45:57;;;;;;;;;7.00;6.00;;;;;7.25;55.52;101438.19;4966123;28;45298;-76
2022/04/02 09:48:27;;;;;;;;;6.50;5.00;;;;;7.19;50.13;101463.16;4964191;28;46049;-69
2022/04/02 09:50:56;;;;;;;;;3.00;2.75;;;;;6.75;46.48;101448.59;4965998;28;45214;-65
2022/04/02 09:53:29;;;;;;;;;5.25;5.25;;;;;6.63;48.52;101453.78;4965986;28;45543;-66
2022/04/02 09:56:13;;;;;;;;;4.00;4.00;;;;;6.61;47.27;101477.00;4968197;28;46210;-71
2022/04/02 09:58:54;;;;;;;;;6.50;2.50;;;;;6.55;50.70;101464.06;4965968;28;45981;-64
2022/04/02 10:01:26;;;;;;;;;2.00;0.00;;;;;6.57;50.35;101446.84;4966632;28;45401;-70
2022/04/02 10:03:58;;;;;;;;;6.75;4.25;;;;;6.72;51.95;101440.84;4964456;28;45450;-66
2022/04/02 10:06:41;;;;;;;;;6.50;4.75;;;;;6.85;48.98;101442.56;4966531;28;45722;-69
2022/04/02 10:09:14;;;;;;;;;9.00;7.00;;;;;6.96;50.28;101439.94;4965957;28;45463;-64
2022/04/02 10:11:54;;;;;;;;;4.00;1.00;;;;;6.98;46.30;101454.59;4966398;28;45422;-64
2022/04/02 10:14:23;;;;;;;;;4.00;3.25;;;;;7.08;47.65;101439.09;4964712;28;45478;-63
2022/04/02 10:16:56;;;;;;;;;7.50;7.25;;;;;7.20;53.61;101439.91;4964793;28;46527;-64
2022/04/02 10:19:28;;;;;;;;;6.75;5.50;;;;;7.32;50.96;101444.19;4967289;28;45417;-65
2022/04/02 10:22:01;;;;;;;;;1.00;1.00;;;;;7.29;49.40;101457.13;4969835;28;45294;-64
2022/04/02 10:24:30;;;;;;;;;5.75;2.75;;;;;7.26;48.95;101449.38;4968005;28;45274;-63
2022/04/02 10:26:57;;;;;;;;;0.50;0.50;;;;;7.31;44.93;101458.84;4969729;28;46402;-64
2022/04/02 10:30:00;;;;;;;;;5.75;4.75;;;;;7.49;50.48;101463.09;4967938;28;45349;-64
2022/04/02 10:32:57;;;;;;;;;3.25;3.25;;;;;7.60;47.91;101463.91;4968993;28;45365;-64
2022/04/02 10:35:26;;;;;;;;;1.25;1.25;;;;;7.75;50.54;101456.97;4967221;28;45578;-66
2022/04/02 10:38:04;;;;;;;;;6.50;3.50;;;;;7.84;49.89;101452.63;4967676;28;45364;-65
2022/04/02 10:40:31;;;;;;;;;4.00;4.00;;;;;7.88;43.00;101425.84;4968183;28;45390;-67
2022/04/02 10:43:02;;;;;;;;;10.25;6.00;;;;;7.96;46.57;101432.69;4970517;28;45449;-67
2022/04/02 10:45:28;;;;;;;;;5.00;5.00;;;;;7.88;46.36;101425.00;4968054;28;45775;-67
2022/04/02 10:48:10;;;;;;;;;1.50;1.50;;;;;7.92;47.21;101435.31;4966516;28;46344;-67
2022/04/02 10:50:42;;;;;;;;;3.50;2.25;;;;;8.03;47.52;101430.09;4969151;28;45199;-67
2022/04/02 10:53:13;;;;;;;;;2.25;1.75;;;;;8.19;49.50;101429.09;4968962;28;45350;-66
2022/04/02 10:55:45;;;;;;;;;2.75;2.75;;;;;8.11;46.96;101430.88;4968025;28;45513;-66
2022/04/02 10:58:11;;;;;;;;;5.25;3.50;;;;;8.16;43.58;101448.97;4968142;28;46196;-69
2022/04/02 11:00:39;;;;;;;;;7.00;5.00;;;;;8.22;46.50;101434.28;4969194;28;45220;-67
2022/04/02 11:03:08;;;;;;;;;5.00;3.00;;;;;8.17;42.00;101448.09;4969694;28;45360;-66
2022/04/02 11:05:38;;;;;;;;;10.00;6.50;;;;;8.33;46.47;101438.50;4969840;28;45466;-66
2022/04/02 11:08:11;;;;;;;;;6.50;3.00;;;;;8.36;47.25;101429.03;4966347;28;45477;-66
2022/04/02 11:10:37;;;;;;;;;3.00;3.00;;;;;8.50;46.02;101460.88;4968888;28;45616;-67
2022/04/02 11:13:06;;;;;;;;;3.00;3.00;;;;;8.58;39.20;101455.63;4969021;28;45612;-64
2022/04/02 11:15:39;;;;;;;;;2.25;2.25;;;;;8.58;41.67;101444.41;4969809;28;45457;-67
2022/04/02 11:18:14;;;;;;;;;3.00;2.00;;;;;8.58;44.74;101445.25;4966230;28;47426;-64
2022/04/02 11:20:42;;;;;;;;;6.00;3.50;;;;;8.65;44.99;101436.56;4967326;28;45433;-63
2022/04/02 11:23:34;;;;;;;;;5.00;2.50;;;;;8.72;42.75;101443.41;4967069;28;45487;-64
2022/04/02 11:26:04;;;;;;;;;2.00;2.00;;;;;8.79;42.05;101449.41;4972374;28;45450;-64
2022/04/02 11:28:44;;;;;;;;;8.25;5.50;;;;;8.95;45.71;101432.84;4968862;28;46924;-64
2022/04/02 11:31:11;;;;;;;;;5.00;5.00;;;;;8.90;44.48;101442.41;4968667;28;45510;-64
2022/04/02 11:33:50;;;;;;;;;6.00;2.50;;;;;8.68;38.70;101451.25;4967061;28;45330;-63
2022/04/02 11:36:15;;;;;;;;;0.25;0.25;;;;;8.51;39.37;101454.81;4968873;28;45427;-60
2022/04/02 11:38:58;;;;;;;;;3.50;3.50;;;;;8.17;37.87;101446.38;4969694;28;46102;-64
2022/04/02 11:41:33;;;;;;;;;5.00;2.00;;;;;8.02;42.70;101436.13;4967282;28;45419;-62
2022/04/02 11:44:16;;;;;;;;;5.50;3.00;;;;;7.95;39.42;101437.03;4968043;28;45315;-69
2022/04/02 11:46:59;;;;;;;;;3.00;3.00;;;;;8.13;43.06;101436.06;4968470;28;45440;-73